createdAt,value
2018-01-01T00:00:09.623Z,0
2018-01-01T00:00:49.726Z,0
2018-01-01T00:01:30.201Z,0
2018-01-01T00:02:10.783Z,0
2018-01-01T00:02:51.474Z,0
2018-01-01T00:03:31.924Z,0
2018-01-01T00:04:12.449Z,0
2018-01-01T00:04:52.994Z,0
2018-01-01T00:05:33.652Z,0
2018-01-01T00:06:14.170Z,0
2018-01-01T00:06:54.779Z,0
2018-01-01T00:07:35.729Z,0
2018-01-01T00:08:17.007Z,0
2018-01-01T00:08:57.324Z,0
2018-01-01T00:09:37.839Z,0
2018-01-01T00:10:18.750Z,0
2018-01-01T00:10:59.446Z,0
2018-01-01T00:11:39.838Z,0
2018-01-01T00:12:20.386Z,0
2018-01-01T00:13:01.006Z,0
2018-01-01T00:13:41.461Z,0
2018-01-01T00:14:22.170Z,0
2018-01-01T00:15:03.066Z,0
2018-01-01T00:17:36.891Z,0
2018-01-01T00:18:17.279Z,0
2018-01-01T00:18:57.728Z,0
2018-01-01T00:19:38.291Z,0
2018-01-01T00:20:18.852Z,0
2018-01-01T00:20:59.407Z,0
2018-01-01T00:21:40.022Z,0
2018-01-01T00:22:20.570Z,0
2018-01-01T00:23:01.048Z,0
2018-01-01T00:23:41.666Z,0
2018-01-01T00:24:22.182Z,0
2018-01-01T00:25:02.767Z,0
2018-01-01T00:25:43.260Z,0
2018-01-01T00:26:23.811Z,0
2018-01-01T00:27:04.367Z,0
2018-01-01T00:27:44.871Z,0
2018-01-01T00:28:25.376Z,0
2018-01-01T00:29:05.966Z,0
2018-01-01T00:29:46.540Z,0
2018-01-01T00:30:27.008Z,0
2018-01-01T00:31:07.547Z,0
2018-01-01T00:31:48.121Z,0
2018-01-01T00:32:28.697Z,0
2018-01-01T00:33:09.247Z,0
2018-01-01T00:33:49.783Z,0
2018-01-01T00:34:30.405Z,0
2018-01-01T00:35:10.929Z,0
2018-01-01T00:35:51.487Z,0
2018-01-01T00:36:32.061Z,0
2018-01-01T00:37:12.543Z,0
2018-01-01T00:37:53.095Z,0
2018-01-01T00:38:33.684Z,0
2018-01-01T00:39:14.201Z,0
2018-01-01T00:39:54.761Z,0
2018-01-01T00:40:35.249Z,0
2018-01-01T00:41:15.849Z,0
2018-01-01T00:41:56.355Z,0
2018-01-01T00:42:36.905Z,0
2018-01-01T00:43:17.468Z,0
2018-01-01T00:43:57.983Z,0
2018-01-01T00:44:38.552Z,0
2018-01-01T00:45:19.111Z,0
2018-01-01T00:45:59.662Z,0
2018-01-01T00:46:40.183Z,0
2018-01-01T00:47:20.680Z,0
2018-01-01T00:48:01.210Z,0
2018-01-01T00:48:41.837Z,0
2018-01-01T00:49:22.319Z,0
2018-01-01T00:50:02.887Z,0
2018-01-01T00:50:43.447Z,0
2018-01-01T00:51:23.935Z,0
2018-01-01T00:52:04.482Z,0
2018-01-01T00:52:44.980Z,0
2018-01-01T00:53:25.503Z,0
2018-01-01T00:54:06.047Z,0
2018-01-01T00:54:46.536Z,0
2018-01-01T00:55:27.081Z,0
2018-01-01T00:56:07.624Z,0
2018-01-01T00:56:48.146Z,0
2018-01-01T00:57:28.674Z,0
2018-01-01T00:58:09.253Z,0
2018-01-01T00:58:49.710Z,0
2018-01-01T00:59:30.241Z,0
2018-01-01T01:00:10.809Z,0
2018-01-01T01:00:51.363Z,0
2018-01-01T01:01:31.910Z,0
2018-01-01T01:02:12.467Z,0
2018-01-01T01:02:53.025Z,0
2018-01-01T01:03:33.616Z,0
2018-01-01T01:04:14.229Z,0
2018-01-01T01:04:54.882Z,0
2018-01-01T01:05:35.555Z,0
2018-01-01T01:06:16.000Z,0
2018-01-01T01:06:56.541Z,0
2018-01-01T01:07:37.024Z,0
2018-01-01T01:08:17.632Z,0
2018-01-01T01:08:58.210Z,0
2018-01-01T01:09:38.808Z,0
2018-01-01T01:10:19.314Z,0
2018-01-01T01:10:59.866Z,0
2018-01-01T01:11:40.449Z,0
2018-01-01T01:12:20.940Z,0
2018-01-01T01:13:01.495Z,0
2018-01-01T01:13:42.144Z,0
2018-01-01T01:14:22.608Z,0
2018-01-01T01:15:03.149Z,0
2018-01-01T01:15:43.699Z,0
2018-01-01T01:16:24.248Z,0
2018-01-01T01:17:04.823Z,0
2018-01-01T01:17:45.400Z,0
2018-01-01T01:18:25.908Z,0
2018-01-01T01:19:06.464Z,0
2018-01-01T01:19:47.005Z,0
2018-01-01T01:20:27.568Z,0
2018-01-01T01:21:08.109Z,0
2018-01-01T01:21:48.822Z,0
2018-01-01T01:22:29.345Z,0
2018-01-01T01:23:09.868Z,0
2018-01-01T01:23:50.475Z,0
2018-01-01T01:24:31.058Z,0
2018-01-01T01:25:11.616Z,0
2018-01-01T01:25:52.161Z,0
2018-01-01T01:26:32.725Z,0
2018-01-01T01:27:13.319Z,0
2018-01-01T01:27:53.815Z,0
2018-01-01T01:28:34.365Z,0
2018-01-01T01:29:14.907Z,0
2018-01-01T01:29:55.466Z,0
2018-01-01T01:30:36.032Z,0
2018-01-01T01:31:16.594Z,0
2018-01-01T01:31:57.120Z,0
2018-01-01T01:32:37.664Z,0
2018-01-01T01:33:18.193Z,0
2018-01-01T01:33:58.713Z,0
2018-01-01T01:34:39.281Z,0
2018-01-01T01:35:19.792Z,0
2018-01-01T01:36:00.325Z,0
2018-01-01T01:36:40.863Z,0
2018-01-01T01:37:21.401Z,0
2018-01-01T01:38:01.921Z,0
2018-01-01T01:38:42.454Z,0
2018-01-01T01:39:22.985Z,0
2018-01-01T01:40:03.573Z,0
2018-01-01T01:40:44.081Z,0
2018-01-01T01:41:24.615Z,0
2018-01-01T01:42:05.160Z,0
2018-01-01T01:42:45.727Z,0
2018-01-01T01:43:26.213Z,0
2018-01-01T01:44:06.813Z,0
2018-01-01T01:44:47.332Z,0
2018-01-01T01:45:27.906Z,0
2018-01-01T01:46:08.421Z,0
2018-01-01T01:46:48.950Z,0
2018-01-01T01:47:29.516Z,0
2018-01-01T01:48:10.036Z,0
2018-01-01T01:48:50.581Z,0
2018-01-01T01:49:31.136Z,0
2018-01-01T01:50:11.697Z,0
2018-01-01T01:50:52.278Z,0
2018-01-01T01:51:32.774Z,0
2018-01-01T01:52:13.279Z,0
2018-01-01T01:52:53.785Z,0
2018-01-01T01:53:34.329Z,0
2018-01-01T01:54:14.891Z,0
2018-01-01T01:54:55.407Z,0
2018-01-01T01:55:35.990Z,0
2018-01-01T01:56:16.538Z,0
2018-01-01T01:56:57.056Z,0
2018-01-01T01:57:37.629Z,0
2018-01-01T01:58:18.167Z,0
2018-01-01T01:58:58.668Z,0
2018-01-01T01:59:39.258Z,0
2018-01-01T02:00:19.770Z,0
2018-01-01T02:01:00.289Z,0
2018-01-01T02:01:40.853Z,0
2018-01-01T02:02:21.494Z,0
2018-01-01T02:03:02.045Z,0
2018-01-01T02:03:42.609Z,0
2018-01-01T02:04:23.190Z,0
2018-01-01T02:05:03.756Z,0
2018-01-01T02:05:44.202Z,0
2018-01-01T02:06:24.728Z,0
2018-01-01T02:07:05.288Z,0
2018-01-01T02:07:45.810Z,0
2018-01-01T02:08:26.339Z,0
2018-01-01T02:09:06.873Z,0
2018-01-01T02:09:47.435Z,0
2018-01-01T02:10:27.995Z,0
2018-01-01T02:11:08.483Z,0
2018-01-01T02:11:49.065Z,0
2018-01-01T02:12:29.615Z,0
2018-01-01T02:13:10.147Z,0
2018-01-01T02:13:50.720Z,0
2018-01-01T02:14:31.257Z,0
2018-01-01T02:15:11.753Z,0
2018-01-01T02:15:52.357Z,0
2018-01-01T02:16:32.930Z,0
2018-01-01T02:17:13.532Z,0
2018-01-01T02:17:53.974Z,0
2018-01-01T02:18:34.506Z,0
2018-01-01T02:19:15.046Z,0
2018-01-01T02:19:55.611Z,0
2018-01-01T02:20:36.174Z,0
2018-01-01T02:21:16.691Z,0
2018-01-01T02:21:57.235Z,0
2018-01-01T02:22:37.778Z,0
2018-01-01T02:23:18.353Z,0
2018-01-01T02:23:58.946Z,0
2018-01-01T02:24:39.475Z,0
2018-01-01T02:25:20.115Z,0
2018-01-01T02:26:00.660Z,0
2018-01-01T02:26:41.234Z,0
2018-01-01T02:27:21.782Z,0
2018-01-01T02:28:02.330Z,0
2018-01-01T02:28:42.904Z,0
2018-01-01T02:29:23.451Z,0
2018-01-01T02:30:03.969Z,0
2018-01-01T02:30:44.540Z,0
2018-01-01T02:31:25.093Z,0
2018-01-01T02:32:05.667Z,0
2018-01-01T02:32:46.212Z,0
2018-01-01T02:33:26.726Z,0
2018-01-01T02:34:07.284Z,0
2018-01-01T02:34:47.815Z,0
2018-01-01T02:35:28.347Z,0
2018-01-01T02:36:08.876Z,0
2018-01-01T02:36:49.455Z,0
2018-01-01T02:37:29.965Z,0
2018-01-01T02:38:10.472Z,0
2018-01-01T02:38:51.008Z,0
2018-01-01T02:39:31.574Z,0
2018-01-01T02:40:12.114Z,0
2018-01-01T02:40:52.649Z,0
2018-01-01T02:41:33.211Z,0
2018-01-01T02:42:13.730Z,0
2018-01-01T02:42:54.297Z,0
2018-01-01T02:43:34.962Z,0
2018-01-01T02:44:15.453Z,0
2018-01-01T02:44:55.971Z,0
2018-01-01T02:45:36.566Z,0
2018-01-01T02:46:17.059Z,0
2018-01-01T02:46:57.591Z,0
2018-01-01T02:47:38.149Z,0
2018-01-01T02:48:18.640Z,0
2018-01-01T02:48:59.207Z,0
2018-01-01T02:49:39.758Z,0
2018-01-01T02:50:20.261Z,0
2018-01-01T02:51:00.782Z,0
2018-01-01T02:51:41.287Z,0
2018-01-01T02:52:21.814Z,0
2018-01-01T02:53:02.374Z,0
2018-01-01T02:53:42.914Z,0
2018-01-01T02:54:23.451Z,0
2018-01-01T02:55:04.001Z,0
2018-01-01T02:55:44.533Z,0
2018-01-01T02:56:25.115Z,0
2018-01-01T02:57:05.581Z,0
2018-01-01T02:57:46.149Z,0
2018-01-01T02:58:26.668Z,0
2018-01-01T02:59:07.262Z,0
2018-01-01T02:59:47.770Z,0
2018-01-01T03:00:28.304Z,0
2018-01-01T03:01:08.821Z,0
2018-01-01T03:01:49.372Z,0
2018-01-01T03:02:29.854Z,0
2018-01-01T03:03:10.507Z,0
2018-01-01T03:03:50.997Z,0
2018-01-01T03:04:31.541Z,0
2018-01-01T03:05:12.038Z,0
2018-01-01T03:05:52.611Z,0
2018-01-01T03:06:33.230Z,0
2018-01-01T03:07:13.743Z,0
2018-01-01T03:07:54.643Z,0
2018-01-01T03:08:34.815Z,0
2018-01-01T03:09:15.368Z,0
2018-01-01T03:09:55.961Z,0
2018-01-01T03:10:36.599Z,0
2018-01-01T03:11:17.240Z,0
2018-01-01T03:11:57.786Z,0
2018-01-01T03:12:38.402Z,0
2018-01-01T03:13:18.920Z,0
2018-01-01T03:13:59.576Z,0
2018-01-01T03:14:40.165Z,0
2018-01-01T03:15:21.016Z,0
2018-01-01T03:16:01.570Z,0
2018-01-01T03:16:42.238Z,0
2018-01-01T03:17:23.062Z,0
2018-01-01T03:18:03.584Z,0
2018-01-01T03:20:46.556Z,0
2018-01-01T03:21:27.136Z,0
2018-01-01T03:22:07.606Z,0
2018-01-01T03:22:48.252Z,0
2018-01-01T03:23:28.773Z,0
2018-01-01T03:24:09.323Z,0
2018-01-01T03:24:49.879Z,0
2018-01-01T03:25:30.401Z,0
2018-01-01T03:26:10.947Z,0
2018-01-01T03:26:51.509Z,0
2018-01-01T03:27:32.057Z,0
2018-01-01T03:28:12.582Z,0
2018-01-01T03:28:53.109Z,0
2018-01-01T03:29:33.677Z,0
2018-01-01T03:30:14.198Z,0
2018-01-01T03:30:54.781Z,0
2018-01-01T03:31:35.273Z,0
2018-01-01T03:32:15.907Z,0
2018-01-01T03:32:56.472Z,0
2018-01-01T03:33:37.049Z,0
2018-01-01T03:34:17.531Z,0
2018-01-01T03:34:58.118Z,0
2018-01-01T03:35:38.720Z,0
2018-01-01T03:36:19.312Z,0
2018-01-01T03:36:59.783Z,0
2018-01-01T03:37:40.318Z,0
2018-01-01T03:38:20.845Z,0
2018-01-01T03:39:01.430Z,0
2018-01-01T03:39:41.945Z,0
2018-01-01T03:40:22.514Z,0
2018-01-01T03:41:02.996Z,0
2018-01-01T03:41:43.555Z,0
2018-01-01T03:42:24.108Z,0
2018-01-01T03:43:04.716Z,0
2018-01-01T03:43:45.303Z,0
2018-01-01T03:44:25.844Z,0
2018-01-01T03:45:06.451Z,0
2018-01-01T03:45:47.014Z,0
2018-01-01T03:46:27.577Z,0
2018-01-01T03:47:08.125Z,0
2018-01-01T03:47:48.669Z,0
2018-01-01T03:48:29.240Z,0
2018-01-01T03:49:09.834Z,0
2018-01-01T03:49:50.357Z,0
2018-01-01T03:50:30.878Z,0
2018-01-01T03:51:11.384Z,0
2018-01-01T03:51:51.911Z,0
2018-01-01T03:52:32.544Z,0
2018-01-01T03:53:13.042Z,0
2018-01-01T03:53:53.572Z,0
2018-01-01T03:54:34.194Z,0
2018-01-01T03:55:14.708Z,0
2018-01-01T03:55:55.248Z,0
2018-01-01T03:56:36.000Z,0
2018-01-01T03:57:16.588Z,0
2018-01-01T03:57:57.013Z,0
2018-01-01T03:58:37.600Z,0
2018-01-01T03:59:18.169Z,0
2018-01-01T03:59:58.771Z,0
2018-01-01T04:00:39.328Z,0
2018-01-01T04:01:19.845Z,0
2018-01-01T04:02:00.385Z,0
2018-01-01T04:02:40.906Z,0
2018-01-01T04:03:21.429Z,0
2018-01-01T04:04:02.018Z,0
2018-01-01T04:04:42.540Z,0
2018-01-01T04:05:23.101Z,0
2018-01-01T04:06:03.599Z,0
2018-01-01T04:06:44.230Z,0
2018-01-01T04:07:24.765Z,0
2018-01-01T04:08:05.302Z,0
2018-01-01T04:08:45.795Z,0
2018-01-01T04:09:26.381Z,0
2018-01-01T04:10:06.886Z,0
2018-01-01T04:10:47.459Z,0
2018-01-01T04:11:27.962Z,0
2018-01-01T04:12:08.480Z,0
2018-01-01T04:12:48.998Z,0
2018-01-01T04:13:29.551Z,0
2018-01-01T04:14:10.151Z,0
2018-01-01T04:14:50.593Z,0
2018-01-01T04:15:31.276Z,0
2018-01-01T04:16:11.681Z,0
2018-01-01T04:16:52.274Z,0
2018-01-01T04:17:32.816Z,0
2018-01-01T04:18:13.281Z,0
2018-01-01T04:18:53.877Z,0
2018-01-01T04:19:34.439Z,0
2018-01-01T04:20:14.984Z,0
2018-01-01T04:20:55.535Z,0
2018-01-01T04:21:36.031Z,0
2018-01-01T04:22:16.564Z,0
2018-01-01T04:22:57.047Z,0
2018-01-01T04:23:37.647Z,0
2018-01-01T04:24:18.109Z,0
2018-01-01T04:24:58.675Z,0
2018-01-01T04:25:39.200Z,0
2018-01-01T04:26:19.719Z,0
2018-01-01T04:27:00.281Z,0
2018-01-01T04:27:40.803Z,0
2018-01-01T04:28:21.491Z,0
2018-01-01T04:29:02.000Z,0
2018-01-01T04:29:42.521Z,0
2018-01-01T04:30:23.216Z,0
2018-01-01T04:31:03.739Z,0
2018-01-01T04:31:44.305Z,0
2018-01-01T04:32:24.804Z,0
2018-01-01T04:33:05.334Z,0
2018-01-01T04:33:45.906Z,0
2018-01-01T04:34:26.419Z,0
2018-01-01T04:35:06.992Z,0
2018-01-01T04:35:47.477Z,0
2018-01-01T04:36:28.942Z,0
2018-01-01T04:37:09.160Z,0
2018-01-01T04:37:49.666Z,0
2018-01-01T04:38:30.198Z,0
2018-01-01T04:39:10.788Z,0
2018-01-01T04:39:51.254Z,0
2018-01-01T04:40:31.868Z,0
2018-01-01T04:41:12.376Z,0
2018-01-01T04:41:52.949Z,0
2018-01-01T04:42:33.563Z,0
2018-01-01T04:43:14.036Z,0
2018-01-01T04:43:54.595Z,0
2018-01-01T04:44:35.186Z,0
2018-01-01T04:45:15.705Z,0
2018-01-01T04:45:56.304Z,0
2018-01-01T04:46:36.805Z,0
2018-01-01T04:47:17.345Z,0
2018-01-01T04:47:57.983Z,0
2018-01-01T04:48:38.573Z,0
2018-01-01T04:49:18.990Z,0
2018-01-01T04:49:59.606Z,0
2018-01-01T04:50:40.258Z,0
2018-01-01T04:51:20.782Z,0
2018-01-01T04:52:01.306Z,0
2018-01-01T04:52:41.980Z,0
2018-01-01T04:53:22.491Z,0
2018-01-01T04:54:03.021Z,0
2018-01-01T04:54:43.537Z,0
2018-01-01T04:55:24.150Z,0
2018-01-01T04:56:04.705Z,0
2018-01-01T04:56:45.179Z,0
2018-01-01T04:57:25.834Z,0
2018-01-01T04:58:06.318Z,0
2018-01-01T04:58:46.876Z,0
2018-01-01T04:59:27.402Z,0
2018-01-01T05:00:07.999Z,0
2018-01-01T05:00:48.514Z,0
2018-01-01T05:01:29.104Z,0
2018-01-01T05:02:09.658Z,0
2018-01-01T05:02:50.169Z,0
2018-01-01T05:03:30.700Z,0
2018-01-01T05:04:11.239Z,0
2018-01-01T05:04:51.760Z,0
2018-01-01T05:05:32.462Z,0
2018-01-01T05:06:12.920Z,0
2018-01-01T05:06:53.529Z,0
2018-01-01T05:07:34.053Z,0
2018-01-01T05:08:14.546Z,0
2018-01-01T05:08:55.119Z,0
2018-01-01T05:09:35.676Z,0
2018-01-01T05:10:16.123Z,0
2018-01-01T05:10:56.724Z,0
2018-01-01T05:11:37.277Z,0
2018-01-01T05:12:17.827Z,0
2018-01-01T05:12:58.378Z,0
2018-01-01T05:13:38.904Z,0
2018-01-01T05:14:19.495Z,0
2018-01-01T05:14:59.987Z,0
2018-01-01T05:15:40.568Z,0
2018-01-01T05:16:21.221Z,0
2018-01-01T05:17:01.744Z,0
2018-01-01T05:17:42.286Z,0
2018-01-01T05:18:22.840Z,0
2018-01-01T05:19:03.317Z,0
2018-01-01T05:19:43.853Z,0
2018-01-01T05:20:24.396Z,0
2018-01-01T05:21:04.958Z,0
2018-01-01T05:21:46.198Z,0
2018-01-01T05:22:26.740Z,0
2018-01-01T05:23:07.244Z,0
2018-01-01T05:23:47.843Z,0
2018-01-01T05:24:28.371Z,0
2018-01-01T05:25:08.860Z,0
2018-01-01T05:25:49.394Z,0
2018-01-01T05:26:29.930Z,0
2018-01-01T05:27:10.420Z,0
2018-01-01T05:27:50.977Z,0
2018-01-01T05:28:31.530Z,0
2018-01-01T05:29:13.038Z,0
2018-01-01T05:29:53.574Z,0
2018-01-01T05:30:34.088Z,0
2018-01-01T05:31:14.601Z,0
2018-01-01T05:31:55.123Z,0
2018-01-01T05:32:35.731Z,0
2018-01-01T05:33:16.277Z,0
2018-01-01T05:33:56.850Z,0
2018-01-01T05:34:37.415Z,0
2018-01-01T05:35:17.923Z,0
2018-01-01T05:35:58.534Z,0
2018-01-01T05:36:39.067Z,0
2018-01-01T05:37:19.633Z,0
2018-01-01T05:38:00.172Z,0
2018-01-01T05:38:40.815Z,0
2018-01-01T05:39:21.321Z,0
2018-01-01T05:40:01.886Z,0
2018-01-01T05:40:42.381Z,0
2018-01-01T05:41:22.949Z,0
2018-01-01T05:42:03.465Z,0
2018-01-01T05:42:44.077Z,0
2018-01-01T05:43:24.610Z,0
2018-01-01T05:44:05.168Z,0
2018-01-01T05:44:45.737Z,0
2018-01-01T05:45:26.208Z,0
2018-01-01T05:46:07.227Z,0
2018-01-01T05:46:47.424Z,0
2018-01-01T05:47:27.998Z,0
2018-01-01T05:48:08.539Z,0
2018-01-01T05:48:49.078Z,0
2018-01-01T05:49:29.731Z,0
2018-01-01T05:50:10.281Z,0
2018-01-01T05:50:50.783Z,0
2018-01-01T05:51:31.279Z,0
2018-01-01T05:52:11.955Z,0
2018-01-01T05:52:52.540Z,0
2018-01-01T05:53:33.089Z,0
2018-01-01T05:54:13.562Z,0
2018-01-01T05:54:54.128Z,0
2018-01-01T05:55:34.666Z,0
2018-01-01T05:56:15.200Z,0
2018-01-01T05:56:55.703Z,0
2018-01-01T05:57:36.248Z,0
2018-01-01T05:58:16.869Z,0
2018-01-01T05:58:57.674Z,0
2018-01-01T05:59:38.257Z,0
2018-01-01T06:00:18.927Z,0
2018-01-01T06:00:59.485Z,0
2018-01-01T06:01:40.110Z,0
2018-01-01T06:02:20.611Z,0
2018-01-01T06:03:01.261Z,0
2018-01-01T06:03:41.776Z,0
2018-01-01T06:04:22.316Z,0
2018-01-01T06:05:02.811Z,0
2018-01-01T06:05:43.514Z,0
2018-01-01T06:06:23.980Z,0
2018-01-01T06:07:04.568Z,0
2018-01-01T06:07:45.174Z,0
2018-01-01T06:08:25.714Z,0
2018-01-01T06:09:06.183Z,0
2018-01-01T06:09:46.846Z,0
2018-01-01T06:10:27.323Z,0
2018-01-01T06:11:07.912Z,0
2018-01-01T06:11:48.411Z,0
2018-01-01T06:12:29.024Z,0
2018-01-01T06:13:09.491Z,0
2018-01-01T06:13:50.200Z,0
2018-01-01T06:14:30.674Z,0
2018-01-01T06:15:11.170Z,0
2018-01-01T06:15:51.799Z,0
2018-01-01T06:16:32.345Z,0
2018-01-01T06:17:12.857Z,0
2018-01-01T06:17:53.376Z,0
2018-01-01T06:18:33.911Z,0
2018-01-01T06:19:14.506Z,0
2018-01-01T06:19:55.014Z,0
2018-01-01T06:20:35.580Z,0
2018-01-01T06:21:16.088Z,0
2018-01-01T06:21:56.681Z,0
2018-01-01T06:22:37.155Z,0
2018-01-01T06:23:17.812Z,0
2018-01-01T06:23:58.355Z,0
2018-01-01T06:24:38.879Z,0
2018-01-01T06:25:19.460Z,0
2018-01-01T06:25:59.974Z,0
2018-01-01T06:26:40.510Z,0
2018-01-01T06:27:21.469Z,0
2018-01-01T06:28:01.942Z,0
2018-01-01T06:28:42.602Z,0
2018-01-01T06:29:23.089Z,0
2018-01-01T06:30:03.697Z,0
2018-01-01T06:30:44.173Z,0
2018-01-01T06:31:24.781Z,0
2018-01-01T06:32:05.282Z,0
2018-01-01T06:32:45.883Z,0
2018-01-01T06:33:26.457Z,0
2018-01-01T06:34:06.998Z,0
2018-01-01T06:34:47.487Z,0
2018-01-01T06:35:28.066Z,0
2018-01-01T06:36:08.634Z,0
2018-01-01T06:36:49.201Z,0
2018-01-01T06:37:29.682Z,0
2018-01-01T06:38:10.219Z,0
2018-01-01T06:38:50.811Z,0
2018-01-01T06:39:31.336Z,0
2018-01-01T06:40:11.863Z,0
2018-01-01T06:40:52.443Z,0
2018-01-01T06:41:32.958Z,0
2018-01-01T06:42:13.603Z,0
2018-01-01T06:42:54.140Z,0
2018-01-01T06:43:34.663Z,0
2018-01-01T06:44:15.236Z,0
2018-01-01T06:44:55.800Z,0
2018-01-01T06:45:36.384Z,0
2018-01-01T06:46:16.937Z,0
2018-01-01T06:46:57.612Z,0
2018-01-01T06:47:38.083Z,0
2018-01-01T06:48:18.678Z,0
2018-01-01T06:48:59.267Z,0
2018-01-01T06:49:39.891Z,0
2018-01-01T06:50:20.493Z,0
2018-01-01T06:51:00.925Z,0
2018-01-01T06:51:41.514Z,0
2018-01-01T06:52:22.088Z,0
2018-01-01T06:53:02.556Z,0
2018-01-01T06:53:43.109Z,0
2018-01-01T06:54:23.741Z,0
2018-01-01T06:55:04.233Z,0
2018-01-01T06:55:44.876Z,0
2018-01-01T06:56:25.352Z,0
2018-01-01T06:57:05.970Z,0
2018-01-01T06:57:46.572Z,0
2018-01-01T06:58:27.139Z,0
2018-01-01T06:59:07.666Z,0
2018-01-01T06:59:48.234Z,0
2018-01-01T07:00:28.810Z,0
2018-01-01T07:01:09.262Z,0
2018-01-01T07:01:49.806Z,0
2018-01-01T07:02:30.420Z,0
2018-01-01T07:03:11.789Z,0
2018-01-01T07:03:51.524Z,0
2018-01-01T07:04:32.094Z,0
2018-01-01T07:05:12.597Z,0
2018-01-01T07:05:53.193Z,0
2018-01-01T07:06:33.672Z,0
2018-01-01T07:07:14.218Z,0
2018-01-01T07:07:54.765Z,0
2018-01-01T07:08:35.270Z,0
2018-01-01T07:09:15.899Z,0
2018-01-01T07:09:56.512Z,0
2018-01-01T07:10:37.104Z,0
2018-01-01T07:11:17.675Z,0
2018-01-01T07:11:58.245Z,0
2018-01-01T07:12:38.714Z,0
2018-01-01T07:13:19.272Z,0
2018-01-01T07:13:59.812Z,0
2018-01-01T07:14:40.445Z,0
2018-01-01T07:15:20.852Z,0
2018-01-01T07:16:01.413Z,0
2018-01-01T07:16:41.933Z,0
2018-01-01T07:17:22.471Z,0
2018-01-01T07:18:03.111Z,0
2018-01-01T07:18:43.548Z,0
2018-01-01T07:19:24.144Z,0
2018-01-01T07:20:04.771Z,5
2018-01-01T07:20:45.296Z,5
2018-01-01T07:21:25.809Z,5
2018-01-01T07:22:06.336Z,5
2018-01-01T07:22:46.976Z,5
2018-01-01T07:23:27.390Z,5
2018-01-01T07:24:07.967Z,5
2018-01-01T07:24:48.504Z,5
2018-01-01T07:25:29.047Z,5
2018-01-01T07:26:09.604Z,5
2018-01-01T07:26:50.173Z,5
2018-01-01T07:27:30.731Z,5
2018-01-01T07:28:11.285Z,5
2018-01-01T07:28:51.942Z,5
2018-01-01T07:29:32.387Z,5
2018-01-01T07:30:12.948Z,5
2018-01-01T07:30:53.550Z,5
2018-01-01T07:31:34.074Z,5
2018-01-01T07:32:14.684Z,10
2018-01-01T07:32:55.188Z,10
2018-01-01T07:33:35.751Z,10
2018-01-01T07:34:16.278Z,10
2018-01-01T07:34:56.928Z,10
2018-01-01T07:35:37.508Z,10
2018-01-01T07:36:18.045Z,10
2018-01-01T07:36:58.639Z,10
2018-01-01T07:37:39.123Z,10
2018-01-01T07:38:19.758Z,10
2018-01-01T07:39:00.263Z,10
2018-01-01T07:39:40.807Z,10
2018-01-01T07:40:21.370Z,10
2018-01-01T07:41:01.865Z,10
2018-01-01T07:41:42.476Z,10
2018-01-01T07:42:23.016Z,15
2018-01-01T07:43:03.741Z,15
2018-01-01T07:43:44.479Z,15
2018-01-01T07:44:25.103Z,15
2018-01-01T07:45:05.570Z,15
2018-01-01T07:45:46.200Z,15
2018-01-01T07:46:26.943Z,15
2018-01-01T07:47:07.413Z,15
2018-01-01T07:47:48.109Z,15
2018-01-01T07:48:28.605Z,15
2018-01-01T07:49:09.168Z,15
2018-01-01T07:49:49.700Z,15
2018-01-01T07:50:30.541Z,15
2018-01-01T07:51:11.027Z,20
2018-01-01T07:51:51.631Z,20
2018-01-01T07:52:32.135Z,20
2018-01-01T07:53:12.715Z,20
2018-01-01T07:53:53.271Z,20
2018-01-01T07:54:33.785Z,20
2018-01-01T07:55:14.361Z,20
2018-01-01T07:55:55.000Z,20
2018-01-01T07:56:35.582Z,20
2018-01-01T07:57:16.157Z,20
2018-01-01T07:57:56.572Z,25
2018-01-01T07:58:37.121Z,25
2018-01-01T07:59:17.790Z,25
2018-01-01T07:59:58.361Z,25
2018-01-01T08:00:38.841Z,25
2018-01-01T08:01:19.421Z,25
2018-01-01T08:02:00.799Z,25
2018-01-01T08:02:40.595Z,25
2018-01-01T08:03:21.181Z,30
2018-01-01T08:04:01.806Z,30
2018-01-01T08:04:42.347Z,30
2018-01-01T08:05:22.910Z,30
2018-01-01T08:06:03.473Z,30
2018-01-01T08:06:44.207Z,30
2018-01-01T08:07:24.815Z,30
2018-01-01T08:08:05.388Z,30
2018-01-01T08:08:45.995Z,30
2018-01-01T08:09:26.476Z,30
2018-01-01T08:10:07.379Z,30
2018-01-01T08:10:47.963Z,30
2018-01-01T08:11:28.448Z,30
2018-01-01T08:12:08.989Z,30
2018-01-01T08:12:49.549Z,30
2018-01-01T08:13:30.113Z,35
2018-01-01T08:14:10.607Z,35
2018-01-01T08:14:51.395Z,35
2018-01-01T08:15:31.993Z,35
2018-01-01T08:16:12.458Z,40
2018-01-01T08:16:53.091Z,45
2018-01-01T08:17:33.663Z,40
2018-01-01T08:18:14.241Z,40
2018-01-01T08:18:54.963Z,40
2018-01-01T08:19:35.415Z,35
2018-01-01T08:20:16.083Z,35
2018-01-01T08:20:56.582Z,35
2018-01-01T08:21:37.104Z,35
2018-01-01T08:22:17.605Z,40
2018-01-01T08:22:58.144Z,40
2018-01-01T08:23:38.690Z,40
2018-01-01T08:24:19.354Z,40
2018-01-01T08:24:59.883Z,40
2018-01-01T08:25:40.352Z,40
2018-01-01T08:26:21.025Z,40
2018-01-01T08:27:01.483Z,40
2018-01-01T08:27:42.061Z,40
2018-01-01T08:28:22.689Z,40
2018-01-01T08:29:03.215Z,40
2018-01-01T08:29:43.747Z,40
2018-01-01T08:30:24.361Z,45
2018-01-01T08:31:04.852Z,45
2018-01-01T08:31:45.411Z,45
2018-01-01T08:32:25.915Z,45
2018-01-01T08:33:06.486Z,45
2018-01-01T08:33:46.989Z,45
2018-01-01T08:34:27.507Z,45
2018-01-01T08:35:08.130Z,45
2018-01-01T08:35:48.659Z,45
2018-01-01T08:36:29.216Z,45
2018-01-01T08:37:09.787Z,45
2018-01-01T08:37:50.334Z,45
2018-01-01T08:38:30.872Z,45
2018-01-01T08:39:11.752Z,45
2018-01-01T08:39:52.231Z,45
2018-01-01T08:40:32.801Z,45
2018-01-01T08:41:13.376Z,45
2018-01-01T08:41:53.937Z,50
2018-01-01T08:42:34.638Z,55
2018-01-01T08:43:15.093Z,60
2018-01-01T08:43:55.718Z,70
2018-01-01T08:44:36.203Z,75
2018-01-01T08:45:16.760Z,70
2018-01-01T08:45:57.295Z,65
2018-01-01T08:46:37.818Z,60
2018-01-01T08:47:18.403Z,50
2018-01-01T08:47:58.953Z,45
2018-01-01T08:48:39.516Z,45
2018-01-01T08:49:20.011Z,45
2018-01-01T08:50:00.586Z,45
2018-01-01T08:50:41.226Z,45
2018-01-01T08:51:21.770Z,45
2018-01-01T08:52:02.325Z,45
2018-01-01T08:52:42.930Z,45
2018-01-01T08:53:23.432Z,45
2018-01-01T08:54:04.044Z,50
2018-01-01T08:54:44.626Z,50
2018-01-01T08:55:25.200Z,50
2018-01-01T08:56:05.702Z,50
2018-01-01T08:56:46.185Z,50
2018-01-01T08:57:26.716Z,50
2018-01-01T08:58:07.244Z,50
2018-01-01T08:58:47.771Z,55
2018-01-01T08:59:28.432Z,55
2018-01-01T09:00:08.885Z,55
2018-01-01T09:00:49.443Z,55
2018-01-01T09:01:30.009Z,55
2018-01-01T09:02:10.534Z,55
2018-01-01T09:02:51.017Z,50
2018-01-01T09:03:31.690Z,50
2018-01-01T09:04:12.266Z,50
2018-01-01T09:04:52.984Z,50
2018-01-01T09:05:33.395Z,50
2018-01-01T09:06:13.934Z,50
2018-01-01T09:06:54.489Z,50
2018-01-01T09:07:35.445Z,50
2018-01-01T09:08:16.109Z,50
2018-01-01T09:08:56.550Z,50
2018-01-01T09:09:37.196Z,55
2018-01-01T09:10:17.986Z,55
2018-01-01T09:10:58.397Z,55
2018-01-01T09:11:39.092Z,55
2018-01-01T09:12:19.630Z,60
2018-01-01T09:13:00.244Z,65
2018-01-01T09:13:40.717Z,65
2018-01-01T09:14:21.386Z,70
2018-01-01T09:15:02.208Z,70
2018-01-01T09:15:42.671Z,70
2018-01-01T09:16:23.174Z,70
2018-01-01T09:17:03.703Z,70
2018-01-01T09:17:44.263Z,70
2018-01-01T09:18:24.798Z,75
2018-01-01T09:19:05.402Z,75
2018-01-01T09:19:46.011Z,75
2018-01-01T09:20:26.532Z,70
2018-01-01T09:21:07.042Z,70
2018-01-01T09:21:47.592Z,70
2018-01-01T09:22:28.102Z,65
2018-01-01T09:23:08.765Z,65
2018-01-01T09:23:49.448Z,60
2018-01-01T09:24:29.954Z,60
2018-01-01T09:25:10.467Z,55
2018-01-01T09:25:50.979Z,55
2018-01-01T09:26:31.491Z,55
2018-01-01T09:27:12.123Z,60
2018-01-01T09:27:52.646Z,60
2018-01-01T09:28:33.163Z,60
2018-01-01T09:29:13.752Z,60
2018-01-01T09:29:54.245Z,65
2018-01-01T09:30:34.821Z,60
2018-01-01T09:31:15.330Z,60
2018-01-01T09:31:55.834Z,65
2018-01-01T09:32:36.650Z,65
2018-01-01T09:33:17.042Z,65
2018-01-01T09:33:57.561Z,65
2018-01-01T09:34:38.139Z,70
2018-01-01T09:35:18.707Z,70
2018-01-01T09:35:59.308Z,70
2018-01-01T09:36:39.877Z,75
2018-01-01T09:37:20.422Z,75
2018-01-01T09:38:00.936Z,75
2018-01-01T09:38:41.527Z,70
2018-01-01T09:39:22.087Z,70
2018-01-01T09:40:02.563Z,70
2018-01-01T09:40:43.176Z,65
2018-01-01T09:41:23.749Z,70
2018-01-01T09:42:04.286Z,65
2018-01-01T09:42:44.818Z,70
2018-01-01T09:43:25.393Z,65
2018-01-01T09:44:05.890Z,65
2018-01-01T09:44:46.602Z,70
2018-01-01T09:45:27.085Z,70
2018-01-01T09:46:07.568Z,70
2018-01-01T09:46:48.101Z,70
2018-01-01T09:47:28.599Z,70
2018-01-01T09:48:09.200Z,70
2018-01-01T09:48:49.754Z,65
2018-01-01T09:49:30.263Z,65
2018-01-01T09:50:10.895Z,65
2018-01-01T09:50:51.517Z,65
2018-01-01T09:51:32.086Z,65
2018-01-01T09:52:12.629Z,60
2018-01-01T09:52:53.320Z,65
2018-01-01T09:53:33.826Z,60
2018-01-01T09:54:14.354Z,60
2018-01-01T09:54:54.947Z,65
2018-01-01T09:55:35.479Z,65
2018-01-01T09:56:15.970Z,65
2018-01-01T09:56:56.552Z,65
2018-01-01T09:57:37.155Z,65
2018-01-01T09:58:17.673Z,65